Ever Ulysses — 9V7962 — position and weather

sailwx.info

Track history (hours):
 
Tides and Currents Weather Stations Pressure Air Temp Water Temp Dewpoint Dewpoint Depression Visibility Wind Speed Wind Dir Waves Ship Positions

Ever Ulysses

Last reported at 2017-Mar-22 17:00 UTC. Time now 2017-Mar-23 18:15 UTC.
Position N 51°54' W 145°12'.

Length 285 m; draft 12.5 m.

Type: Ship (hazmat cat D). MMSI: 564442000.

Wind from 340 at 34 knots

Barometer 1008.1 mb
Air temperature 9.8 ° C
Visibility: greater than 10.8 NM
Dewpoint 7.1 ° C
Water temperature 8.0 ° C

Date/timePositionNaut miles runAvg speedWind from/ knotsBaromVisibWave heightAir tempDewpointWater temp
2017-Mar-22 17:00N 51°54' W 145°12'41517.3 340 / 341008.110.8 9.8 7.1 8.0
2017-Mar-21 17:00N 49°18' W 135°06'32013.5 360 / 321009.1 5.4 8.0 0.5 9.0
2017-Mar-20 17:19N 48°32' W 127°03'1013.1
2017-Mar-20 16:33N 48°32' W 126°48'1313.1
2017-Mar-20 15:33N 48°32' W 126°29'1313.2
2017-Mar-20 14:34N 48°32' W 126°09'1313.4
2017-Mar-20 13:34N 48°32' W 125°49'1413.6
2017-Mar-20 12:33N 48°31' W 125°28'1414.0
2017-Mar-20 11:33N 48°31' W 125°07'1413.7
2017-Mar-20 10:33N 48°31' W 124°46'1818.0
2017-Mar-20 09:33N 48°24' W 124°21'1918.7
2017-Mar-20 08:33N 48°18' W 123°54'1716.7
2017-Mar-20 07:33N 48°16' W 123°29'1211.5
2017-Mar-20 06:33N 48°24' W 123°16'1716.8
2017-Mar-20 05:33N 48°40' W 123°15'1313.4
2017-Mar-20 04:33N 48°52' W 123°05'1818.4
2017-Mar-20 03:33N 49°06' W 123°23'1414.4
2017-Mar-20 02:34N 49°19' W 123°14'6 6.2
2017-Mar-20 01:33N 49°17' W 123°05'0 0.0
2017-Mar-20 00:33N 49°17' W 123°05'0 0.0
2017-Mar-19 23:33N 49°17' W 123°05'0 0.0
2017-Mar-19 22:33N 49°17' W 123°05'0 0.0
2017-Mar-19 21:33N 49°17' W 123°05'0 0.0
2017-Mar-19 20:33N 49°17' W 123°05'0 0.0
2017-Mar-19 19:33N 49°17' W 123°05'0 0.0
2017-Mar-19 18:33N 49°17' W 123°05'0 0.0
2017-Mar-19 17:33N 49°17' W 123°05'0 0.0
2017-Mar-19 16:33N 49°17' W 123°05'0 0.0
2017-Mar-19 15:33N 49°17' W 123°05'0 0.0
2017-Mar-19 14:33N 49°17' W 123°05'0 0.0
2017-Mar-19 13:33N 49°17' W 123°05'0 0.0
2017-Mar-19 12:33N 49°17' W 123°05'0 0.0
2017-Mar-19 11:33N 49°17' W 123°05'0 0.0
2017-Mar-19 10:33N 49°17' W 123°05'0 0.0
2017-Mar-19 09:33N 49°17' W 123°05'0 0.0
2017-Mar-19 08:33N 49°17' W 123°05'0 0.0
2017-Mar-19 07:33N 49°17' W 123°05'0 0.0
2017-Mar-19 06:33N 49°17' W 123°05'0 0.0
2017-Mar-19 05:33N 49°17' W 123°05'0 0.0
2017-Mar-19 04:33N 49°17' W 123°05'0 0.0
2017-Mar-19 03:33N 49°17' W 123°05'0 0.0
2017-Mar-19 02:33N 49°17' W 123°05'0 0.0
2017-Mar-19 01:33N 49°17' W 123°05'0 0.0
2017-Mar-19 00:33N 49°17' W 123°05'3 2.7
2017-Mar-18 23:33N 49°19' W 123°08'1212.1
2017-Mar-18 22:33N 49°10' W 123°20'1716.9
2017-Mar-18 21:33N 48°55' W 123°06'1212.3
2017-Mar-18 20:34N 48°43' W 123°11'1414.4
2017-Mar-18 19:33N 48°29' W 123°10'1211.6
2017-Mar-18 18:33N 48°21' W 123°24'1211.8
2017-Mar-18 17:33N 48°10' W 123°22'1211.9
2017-Mar-18 16:33N 48°13' W 123°05'1817.8
2017-Mar-18 15:33N 48°07' W 122°40'1818.1
2017-Mar-18 14:33N 47°51' W 122°27'1717.3
2017-Mar-18 13:33N 47°34' W 122°26'1313.4
2017-Mar-18 12:33N 47°20' W 122°26'5 5.1
2017-Mar-18 11:32N 47°15' W 122°23'0 0.0
2017-Mar-18 05:26N 47°15' W 122°23'0 0.0
2017-Mar-17 07:16N 47°15' W 122°23'0 0.0
2017-Mar-17 06:16N 47°15' W 122°23'0 0.0
2017-Mar-17 05:28N 47°15' W 122°23'0 0.0
2017-Mar-17 04:23N 47°15' W 122°23'0 0.0
2017-Mar-17 01:11N 47°15' W 122°23'0 0.0
2017-Mar-17 00:22N 47°15' W 122°23'0 0.0
2017-Mar-16 23:29N 47°15' W 122°23'0 0.0
2017-Mar-16 22:25N 47°15' W 122°23'2 2.8
2017-Mar-16 21:33N 47°17' W 122°25'7 7.5
2017-Mar-16 20:33N 47°24' W 122°22'1817.5
2017-Mar-16 19:33N 47°41' W 122°28'1616.2
2017-Mar-16 18:34N 47°57' W 122°34'1514.9
2017-Mar-16 17:32N 48°10' W 122°46'1616.5
2017-Mar-16 16:33N 48°12' W 123°09'1211.8
2017-Mar-16 15:34N 48°12' W 123°27'1211.5
2017-Mar-16 14:33N 48°13' W 123°44'1514.6
2017-Mar-16 13:33N 48°17' W 124°06'1616.5
2017-Mar-16 12:34N 48°24' W 124°28'1616.3
2017-Mar-16 11:33N 48°29' W 124°51'1716.6
2017-Mar-16 10:33N 48°29' W 125°16'1717.4
2017-Mar-16 09:33N 48°29' W 125°43'1717.3
2017-Mar-16 08:33N 48°29' W 126°09'28817.4
2017-Mar-15 16:00N 48°42' W 133°24'44219.2 210 / 341008.1 5.4 5.0 7.0
2017-Mar-14 17:00N 51°42' W 143°54'44419.3 210 / 17995.0 5.4 2.0 6.0
2017-Mar-13 18:00N 53°36' W 155°42'   320 / 181006.0 5.4 1.0 6.0
Track history (hours):
 
Tides and Currents Weather Stations Pressure Air Temp Water Temp Dewpoint Dewpoint Depression Visibility Wind Speed Wind Dir Waves Ship Positions

Ever Ulysses

Last reported at 2017-Mar-22 17:00 UTC. Time now 2017-Mar-23 18:15 UTC.
Position N 51°54' W 145°12'.

Length 285 m; draft 12.5 m.

Type: Ship (hazmat cat D). MMSI: 564442000.

Wind from 340 at 34 knots

Barometer 1008.1 mb
Air temperature 9.8 ° C
Visibility: greater than 10.8 NM
Dewpoint 7.1 ° C
Water temperature 8.0 ° C

Date/timePositionNaut miles runAvg speedWind from/ knotsBaromVisibWave heightAir tempDewpointWater temp
2017-Mar-22 17:00N 51°54' W 145°12'41517.3 340 / 341008.110.8 9.8 7.1 8.0
2017-Mar-21 17:00N 49°18' W 135°06'32013.5 360 / 321009.1 5.4 8.0 0.5 9.0
2017-Mar-20 17:19N 48°32' W 127°03'1013.1
2017-Mar-20 16:33N 48°32' W 126°48'1313.1
2017-Mar-20 15:33N 48°32' W 126°29'1313.2
2017-Mar-20 14:34N 48°32' W 126°09'1313.4
2017-Mar-20 13:34N 48°32' W 125°49'1413.6
2017-Mar-20 12:33N 48°31' W 125°28'1414.0
2017-Mar-20 11:33N 48°31' W 125°07'1413.7
2017-Mar-20 10:33N 48°31' W 124°46'1818.0
2017-Mar-20 09:33N 48°24' W 124°21'1918.7
2017-Mar-20 08:33N 48°18' W 123°54'1716.7
2017-Mar-20 07:33N 48°16' W 123°29'1211.5
2017-Mar-20 06:33N 48°24' W 123°16'1716.8
2017-Mar-20 05:33N 48°40' W 123°15'1313.4
2017-Mar-20 04:33N 48°52' W 123°05'1818.4
2017-Mar-20 03:33N 49°06' W 123°23'1414.4
2017-Mar-20 02:34N 49°19' W 123°14'6 6.2
2017-Mar-20 01:33N 49°17' W 123°05'0 0.0
2017-Mar-20 00:33N 49°17' W 123°05'0 0.0
2017-Mar-19 23:33N 49°17' W 123°05'0 0.0
2017-Mar-19 22:33N 49°17' W 123°05'0 0.0
2017-Mar-19 21:33N 49°17' W 123°05'0 0.0
2017-Mar-19 20:33N 49°17' W 123°05'0 0.0
2017-Mar-19 19:33N 49°17' W 123°05'0 0.0
2017-Mar-19 18:33N 49°17' W 123°05'0 0.0
2017-Mar-19 17:33N 49°17' W 123°05'0 0.0
2017-Mar-19 16:33N 49°17' W 123°05'0 0.0
2017-Mar-19 15:33N 49°17' W 123°05'0 0.0
2017-Mar-19 14:33N 49°17' W 123°05'0 0.0
2017-Mar-19 13:33N 49°17' W 123°05'0 0.0
2017-Mar-19 12:33N 49°17' W 123°05'0 0.0
2017-Mar-19 11:33N 49°17' W 123°05'0 0.0
2017-Mar-19 10:33N 49°17' W 123°05'0 0.0
2017-Mar-19 09:33N 49°17' W 123°05'0 0.0
2017-Mar-19 08:33N 49°17' W 123°05'0 0.0
2017-Mar-19 07:33N 49°17' W 123°05'0 0.0
2017-Mar-19 06:33N 49°17' W 123°05'0 0.0
2017-Mar-19 05:33N 49°17' W 123°05'0 0.0
2017-Mar-19 04:33N 49°17' W 123°05'0 0.0
2017-Mar-19 03:33N 49°17' W 123°05'0 0.0
2017-Mar-19 02:33N 49°17' W 123°05'0 0.0
2017-Mar-19 01:33N 49°17' W 123°05'0 0.0
2017-Mar-19 00:33N 49°17' W 123°05'3 2.7
2017-Mar-18 23:33N 49°19' W 123°08'1212.1
2017-Mar-18 22:33N 49°10' W 123°20'1716.9
2017-Mar-18 21:33N 48°55' W 123°06'1212.3
2017-Mar-18 20:34N 48°43' W 123°11'1414.4
2017-Mar-18 19:33N 48°29' W 123°10'1211.6
2017-Mar-18 18:33N 48°21' W 123°24'1211.8
2017-Mar-18 17:33N 48°10' W 123°22'1211.9
2017-Mar-18 16:33N 48°13' W 123°05'1817.8
2017-Mar-18 15:33N 48°07' W 122°40'1818.1
2017-Mar-18 14:33N 47°51' W 122°27'1717.3
2017-Mar-18 13:33N 47°34' W 122°26'1313.4
2017-Mar-18 12:33N 47°20' W 122°26'5 5.1
2017-Mar-18 11:32N 47°15' W 122°23'0 0.0
2017-Mar-18 05:26N 47°15' W 122°23'0 0.0
2017-Mar-17 07:16N 47°15' W 122°23'0 0.0
2017-Mar-17 06:16N 47°15' W 122°23'0 0.0
2017-Mar-17 05:28N 47°15' W 122°23'0 0.0
2017-Mar-17 04:23N 47°15' W 122°23'0 0.0
2017-Mar-17 01:11N 47°15' W 122°23'0 0.0
2017-Mar-17 00:22N 47°15' W 122°23'0 0.0
2017-Mar-16 23:29N 47°15' W 122°23'0 0.0
2017-Mar-16 22:25N 47°15' W 122°23'2 2.8
2017-Mar-16 21:33N 47°17' W 122°25'7 7.5
2017-Mar-16 20:33N 47°24' W 122°22'1817.5
2017-Mar-16 19:33N 47°41' W 122°28'1616.2
2017-Mar-16 18:34N 47°57' W 122°34'1514.9
2017-Mar-16 17:32N 48°10' W 122°46'1616.5
2017-Mar-16 16:33N 48°12' W 123°09'1211.8
2017-Mar-16 15:34N 48°12' W 123°27'1211.5
2017-Mar-16 14:33N 48°13' W 123°44'1514.6
2017-Mar-16 13:33N 48°17' W 124°06'1616.5
2017-Mar-16 12:34N 48°24' W 124°28'1616.3
2017-Mar-16 11:33N 48°29' W 124°51'1716.6
2017-Mar-16 10:33N 48°29' W 125°16'1717.4
2017-Mar-16 09:33N 48°29' W 125°43'1717.3
2017-Mar-16 08:33N 48°29' W 126°09'28817.4
2017-Mar-15 16:00N 48°42' W 133°24'44219.2 210 / 341008.1 5.4 5.0 7.0
2017-Mar-14 17:00N 51°42' W 143°54'44419.3 210 / 17995.0 5.4 2.0 6.0
2017-Mar-13 18:00N 53°36' W 155°42'   320 / 181006.0 5.4 1.0 6.0

Dump ship's entire track history